CFS8783 KGTF-KGPI
Flight info
| Callsign | CFS8783 |
|---|---|
| Flight time | 0h 45m |
| Altitude | 16000 |
| Route | GTF V536 FCA |
| Aircraft | AT76/M-SDFGIRY/S |
Departure
| Time | 2026-05-07 00:37 |
|---|---|
| Airport | Great Falls International Airport (KGTF) |
Arrival
| Time | 2026-05-07 01:22 |
|---|---|
| Airport | Glacier Park International Airport (KGPI) |
| Time | Latitude | Longitude | Altitude | Speed | Heading |
|---|---|---|---|---|---|
| 2026-05-07 00:15 | 47.49007 | -111.35852 | 3666 ft | 0 kts | 314° |
| 2026-05-07 00:34 | 47.49007 | -111.35861 | 3666 ft | 1 kts | 272° |
| 2026-05-07 00:34 | 47.48991 | -111.35859 | 3666 ft | 6 kts | 133° |
| 2026-05-07 00:34 | 47.49008 | -111.35753 | 3666 ft | 15 kts | 68° |
| 2026-05-07 00:34 | 47.49058 | -111.35591 | 3665 ft | 11 kts | 64° |
| 2026-05-07 00:35 | 47.49050 | -111.35512 | 3664 ft | 12 kts | 120° |
| 2026-05-07 00:35 | 47.49046 | -111.35503 | 3664 ft | 0 kts | 133° |
| 2026-05-07 00:35 | 47.49036 | -111.35492 | 3664 ft | 8 kts | 139° |
| 2026-05-07 00:36 | 47.48971 | -111.35411 | 3663 ft | 13 kts | 144° |
| 2026-05-07 00:36 | 47.48932 | -111.35433 | 3663 ft | 20 kts | 227° |
| 2026-05-07 00:36 | 47.48662 | -111.35838 | 3669 ft | 93 kts | 225° |
| 2026-05-07 00:36 | 47.48077 | -111.36602 | 3963 ft | 120 kts | 230° |
| 2026-05-07 00:37 | 47.47465 | -111.37479 | 4552 ft | 125 kts | 233° |
| 2026-05-07 00:37 | 47.46878 | -111.38451 | 5195 ft | 128 kts | 237° |
| 2026-05-07 00:37 | 47.46266 | -111.39433 | 5804 ft | 130 kts | 232° |
| 2026-05-07 00:37 | 47.45625 | -111.40385 | 6319 ft | 131 kts | 232° |
| 2026-05-07 00:38 | 47.45034 | -111.41376 | 6716 ft | 128 kts | 258° |
| 2026-05-07 00:38 | 47.45252 | -111.42531 | 7147 ft | 120 kts | 316° |
| 2026-05-07 00:38 | 47.45832 | -111.43405 | 7571 ft | 119 kts | 308° |
| 2026-05-07 00:38 | 47.46337 | -111.44380 | 8029 ft | 119 kts | 306° |
| 2026-05-07 00:39 | 47.46828 | -111.45380 | 8470 ft | 121 kts | 304° |
| 2026-05-07 00:39 | 47.47286 | -111.46431 | 8937 ft | 122 kts | 302° |
| 2026-05-07 00:39 | 47.47710 | -111.47516 | 9399 ft | 123 kts | 298° |
| 2026-05-07 00:39 | 47.48128 | -111.48725 | 9596 ft | 145 kts | 297° |
| 2026-05-07 00:40 | 47.48584 | -111.50188 | 9735 ft | 167 kts | 294° |
| 2026-05-07 00:40 | 47.49041 | -111.51860 | 9925 ft | 180 kts | 292° |
| 2026-05-07 00:40 | 47.49479 | -111.53600 | 10271 ft | 180 kts | 291° |
| 2026-05-07 00:40 | 47.49912 | -111.55337 | 10633 ft | 181 kts | 292° |
| 2026-05-07 00:41 | 47.50355 | -111.57084 | 10987 ft | 182 kts | 292° |
| 2026-05-07 00:41 | 47.50805 | -111.58832 | 11353 ft | 182 kts | 292° |
| 2026-05-07 00:41 | 47.51251 | -111.60560 | 11701 ft | 183 kts | 292° |
| 2026-05-07 00:41 | 47.51704 | -111.62321 | 12057 ft | 183 kts | 292° |
| 2026-05-07 00:42 | 47.52157 | -111.64081 | 12403 ft | 183 kts | 292° |
| 2026-05-07 00:42 | 47.52611 | -111.65840 | 12749 ft | 184 kts | 293° |
| 2026-05-07 00:42 | 47.53068 | -111.67607 | 13102 ft | 184 kts | 293° |
| 2026-05-07 00:42 | 47.53326 | -111.69468 | 13398 ft | 187 kts | 279° |
| 2026-05-07 00:43 | 47.53417 | -111.71395 | 13697 ft | 188 kts | 278° |
| 2026-05-07 00:43 | 47.53503 | -111.73330 | 13969 ft | 189 kts | 279° |
| 2026-05-07 00:43 | 47.53617 | -111.75264 | 14235 ft | 189 kts | 280° |
| 2026-05-07 00:43 | 47.53765 | -111.77195 | 14488 ft | 189 kts | 281° |
| 2026-05-07 00:44 | 47.53931 | -111.79125 | 14752 ft | 189 kts | 282° |
| 2026-05-07 00:44 | 47.54096 | -111.81054 | 15022 ft | 189 kts | 282° |
| 2026-05-07 00:44 | 47.54261 | -111.82984 | 15276 ft | 189 kts | 282° |
| 2026-05-07 00:44 | 47.54426 | -111.84919 | 15531 ft | 190 kts | 282° |
| 2026-05-07 00:45 | 47.54589 | -111.86857 | 15796 ft | 190 kts | 282° |
| 2026-05-07 00:45 | 47.54756 | -111.88824 | 15914 ft | 197 kts | 282° |
| 2026-05-07 00:45 | 47.54930 | -111.90873 | 15956 ft | 204 kts | 282° |
| 2026-05-07 00:45 | 47.55108 | -111.92995 | 15993 ft | 211 kts | 281° |
| 2026-05-07 00:46 | 47.55290 | -111.95178 | 15990 ft | 216 kts | 281° |
| 2026-05-07 00:46 | 47.55477 | -111.97398 | 15999 ft | 219 kts | 281° |
| 2026-05-07 00:46 | 47.55665 | -111.99653 | 16002 ft | 222 kts | 281° |
| 2026-05-07 00:46 | 47.55856 | -112.01929 | 16011 ft | 224 kts | 281° |
| 2026-05-07 00:47 | 47.56046 | -112.04219 | 16010 ft | 225 kts | 281° |
| 2026-05-07 00:47 | 47.56237 | -112.06524 | 16016 ft | 226 kts | 281° |
| 2026-05-07 00:47 | 47.56426 | -112.08806 | 16013 ft | 227 kts | 281° |
| 2026-05-07 00:47 | 47.56618 | -112.11159 | 16021 ft | 227 kts | 281° |
| 2026-05-07 00:48 | 47.56807 | -112.13455 | 16017 ft | 228 kts | 281° |
| 2026-05-07 00:48 | 47.56997 | -112.15779 | 16020 ft | 228 kts | 281° |
| 2026-05-07 00:48 | 47.57189 | -112.18110 | 16017 ft | 228 kts | 281° |
| 2026-05-07 00:48 | 47.57379 | -112.20440 | 16015 ft | 228 kts | 281° |
| 2026-05-07 00:49 | 47.57568 | -112.22769 | 16011 ft | 228 kts | 281° |
| 2026-05-07 00:49 | 47.57758 | -112.25100 | 16011 ft | 228 kts | 281° |
| 2026-05-07 00:49 | 47.57946 | -112.27435 | 16006 ft | 228 kts | 281° |
| 2026-05-07 00:49 | 47.58134 | -112.29766 | 16012 ft | 228 kts | 281° |
| 2026-05-07 00:50 | 47.58322 | -112.32098 | 16015 ft | 228 kts | 281° |
| 2026-05-07 00:50 | 47.58509 | -112.34430 | 16014 ft | 228 kts | 281° |
| 2026-05-07 00:50 | 47.58697 | -112.36762 | 16019 ft | 228 kts | 281° |
| 2026-05-07 00:50 | 47.58883 | -112.39095 | 16021 ft | 228 kts | 281° |
| 2026-05-07 00:51 | 47.59069 | -112.41431 | 16028 ft | 229 kts | 281° |
| 2026-05-07 00:51 | 47.59255 | -112.43771 | 16024 ft | 229 kts | 281° |
| 2026-05-07 00:51 | 47.59439 | -112.46114 | 16025 ft | 229 kts | 281° |
| 2026-05-07 00:51 | 47.59564 | -112.47665 | 16028 ft | 229 kts | 281° |
| 2026-05-07 00:52 | 47.59749 | -112.50015 | 16024 ft | 229 kts | 281° |
| 2026-05-07 00:52 | 47.59933 | -112.52361 | 16027 ft | 229 kts | 281° |
| 2026-05-07 00:52 | 47.60117 | -112.54704 | 16036 ft | 229 kts | 281° |
| 2026-05-07 00:52 | 47.60301 | -112.57040 | 16031 ft | 228 kts | 281° |
| 2026-05-07 00:53 | 47.60483 | -112.59376 | 16041 ft | 228 kts | 281° |
| 2026-05-07 00:53 | 47.60665 | -112.61718 | 16047 ft | 229 kts | 280° |
| 2026-05-07 00:53 | 47.60846 | -112.64054 | 16046 ft | 229 kts | 280° |
| 2026-05-07 00:53 | 47.61026 | -112.66394 | 16050 ft | 228 kts | 280° |
| 2026-05-07 00:54 | 47.61209 | -112.68736 | 16054 ft | 229 kts | 280° |
| 2026-05-07 00:54 | 47.61389 | -112.71085 | 16058 ft | 229 kts | 280° |
| 2026-05-07 00:54 | 47.61569 | -112.73431 | 16050 ft | 229 kts | 281° |
| 2026-05-07 00:54 | 47.61747 | -112.75745 | 16059 ft | 229 kts | 280° |
| 2026-05-07 00:55 | 47.61925 | -112.78087 | 16036 ft | 229 kts | 280° |
| 2026-05-07 00:55 | 47.62105 | -112.80428 | 16058 ft | 228 kts | 280° |
| 2026-05-07 00:55 | 47.62284 | -112.82770 | 16102 ft | 229 kts | 280° |
| 2026-05-07 00:55 | 47.62464 | -112.85120 | 16076 ft | 230 kts | 280° |
| 2026-05-07 00:56 | 47.62638 | -112.87468 | 16077 ft | 229 kts | 280° |
| 2026-05-07 00:56 | 47.62814 | -112.89822 | 16069 ft | 228 kts | 280° |
| 2026-05-07 00:56 | 47.62989 | -112.92154 | 16063 ft | 227 kts | 279° |
| 2026-05-07 00:56 | 47.63165 | -112.94480 | 16066 ft | 226 kts | 280° |
| 2026-05-07 00:57 | 47.63337 | -112.96790 | 16065 ft | 225 kts | 279° |
| 2026-05-07 00:57 | 47.63509 | -112.99094 | 16066 ft | 224 kts | 279° |
| 2026-05-07 00:57 | 47.63676 | -113.01376 | 16074 ft | 222 kts | 280° |
| 2026-05-07 00:57 | 47.63849 | -113.03634 | 16103 ft | 224 kts | 279° |
| 2026-05-07 00:58 | 47.64020 | -113.05938 | 16074 ft | 225 kts | 279° |
| 2026-05-07 00:58 | 47.64186 | -113.08242 | 16078 ft | 225 kts | 279° |
| 2026-05-07 00:58 | 47.64360 | -113.10533 | 16013 ft | 222 kts | 280° |
| 2026-05-07 00:58 | 47.64540 | -113.12803 | 16023 ft | 222 kts | 280° |
| 2026-05-07 00:59 | 47.64888 | -113.17345 | 16062 ft | 223 kts | 279° |
| 2026-05-07 00:59 | 47.65055 | -113.19639 | 16086 ft | 224 kts | 279° |
| 2026-05-07 00:59 | 47.65219 | -113.21939 | 16076 ft | 225 kts | 279° |
| 2026-05-07 01:00 | 47.65382 | -113.24250 | 16070 ft | 225 kts | 279° |
| 2026-05-07 01:00 | 47.65545 | -113.26551 | 16079 ft | 224 kts | 279° |
| 2026-05-07 01:00 | 47.65709 | -113.28853 | 16095 ft | 225 kts | 279° |
| 2026-05-07 01:00 | 47.65875 | -113.31162 | 16062 ft | 224 kts | 279° |
| 2026-05-07 01:01 | 47.66033 | -113.33454 | 16075 ft | 223 kts | 279° |
| 2026-05-07 01:01 | 47.66201 | -113.35738 | 16060 ft | 223 kts | 279° |
| 2026-05-07 01:01 | 47.66370 | -113.38019 | 16053 ft | 221 kts | 279° |
| 2026-05-07 01:01 | 47.66530 | -113.40272 | 16081 ft | 219 kts | 279° |
| 2026-05-07 01:02 | 47.66687 | -113.42525 | 16090 ft | 220 kts | 279° |
| 2026-05-07 01:02 | 47.66846 | -113.44790 | 16089 ft | 221 kts | 279° |
| 2026-05-07 01:02 | 47.67003 | -113.47036 | 16075 ft | 222 kts | 279° |
| 2026-05-07 01:02 | 47.67165 | -113.49317 | 16064 ft | 222 kts | 279° |
| 2026-05-07 01:03 | 47.67320 | -113.51588 | 16085 ft | 221 kts | 278° |
| 2026-05-07 01:03 | 47.67477 | -113.53866 | 16076 ft | 222 kts | 279° |
| 2026-05-07 01:03 | 47.67638 | -113.56139 | 16064 ft | 221 kts | 279° |
| 2026-05-07 01:03 | 47.67795 | -113.58420 | 16056 ft | 222 kts | 279° |
| 2026-05-07 01:04 | 47.67957 | -113.60698 | 16092 ft | 222 kts | 279° |
| 2026-05-07 01:04 | 47.68117 | -113.62983 | 16083 ft | 223 kts | 278° |
| 2026-05-07 01:04 | 47.68279 | -113.65272 | 16078 ft | 222 kts | 279° |
| 2026-05-07 01:04 | 47.68434 | -113.67552 | 16054 ft | 221 kts | 278° |
| 2026-05-07 01:05 | 47.68578 | -113.69810 | 16061 ft | 219 kts | 278° |
| 2026-05-07 01:05 | 47.68727 | -113.72057 | 16057 ft | 219 kts | 278° |
| 2026-05-07 01:05 | 47.68882 | -113.74323 | 16070 ft | 221 kts | 278° |
| 2026-05-07 01:05 | 47.69040 | -113.76603 | 16061 ft | 223 kts | 279° |
| 2026-05-07 01:06 | 47.69196 | -113.78890 | 16056 ft | 223 kts | 278° |
| 2026-05-07 01:06 | 47.69350 | -113.81181 | 16063 ft | 223 kts | 278° |
| 2026-05-07 01:06 | 47.69503 | -113.83477 | 16055 ft | 223 kts | 278° |
| 2026-05-07 01:06 | 47.69656 | -113.85770 | 16062 ft | 223 kts | 278° |
| 2026-05-07 01:07 | 47.69809 | -113.88029 | 16050 ft | 223 kts | 278° |
| 2026-05-07 01:07 | 47.69964 | -113.90310 | 16045 ft | 221 kts | 278° |
| 2026-05-07 01:07 | 47.70111 | -113.92575 | 16060 ft | 220 kts | 278° |
| 2026-05-07 01:07 | 47.70253 | -113.94844 | 16057 ft | 221 kts | 278° |
| 2026-05-07 01:08 | 47.70402 | -113.97112 | 16062 ft | 221 kts | 278° |
| 2026-05-07 01:08 | 47.70558 | -113.99396 | 16064 ft | 224 kts | 278° |
| 2026-05-07 01:08 | 47.70712 | -114.01702 | 16056 ft | 226 kts | 278° |
| 2026-05-07 01:08 | 47.70862 | -114.04027 | 16044 ft | 226 kts | 278° |
| 2026-05-07 01:09 | 47.71011 | -114.06353 | 16041 ft | 227 kts | 278° |
| 2026-05-07 01:09 | 47.71160 | -114.08684 | 16033 ft | 226 kts | 278° |
| 2026-05-07 01:09 | 47.71311 | -114.11009 | 16039 ft | 226 kts | 278° |
| 2026-05-07 01:09 | 47.71475 | -114.13322 | 16039 ft | 222 kts | 282° |
| 2026-05-07 01:10 | 47.72186 | -114.15285 | 16041 ft | 220 kts | 311° |
| 2026-05-07 01:10 | 47.73316 | -114.16841 | 16040 ft | 223 kts | 316° |
| 2026-05-07 01:10 | 47.74490 | -114.18360 | 16034 ft | 224 kts | 316° |
| 2026-05-07 01:10 | 47.75659 | -114.19895 | 16038 ft | 224 kts | 315° |
| 2026-05-07 01:11 | 47.76798 | -114.21476 | 16043 ft | 224 kts | 314° |
| 2026-05-07 01:11 | 47.77921 | -114.23089 | 16030 ft | 226 kts | 314° |
| 2026-05-07 01:11 | 47.79064 | -114.24729 | 15752 ft | 236 kts | 314° |
| 2026-05-07 01:11 | 47.80260 | -114.26449 | 15480 ft | 240 kts | 314° |
| 2026-05-07 01:12 | 47.81452 | -114.28168 | 15222 ft | 237 kts | 314° |
| 2026-05-07 01:12 | 47.82632 | -114.29873 | 14927 ft | 236 kts | 314° |
| 2026-05-07 01:12 | 47.83810 | -114.31601 | 14564 ft | 239 kts | 313° |
| 2026-05-07 01:12 | 47.84994 | -114.33353 | 14215 ft | 241 kts | 313° |
| 2026-05-07 01:13 | 47.86202 | -114.35106 | 13863 ft | 243 kts | 314° |
| 2026-05-07 01:13 | 47.87422 | -114.36869 | 13483 ft | 245 kts | 314° |
| 2026-05-07 01:13 | 47.88653 | -114.38642 | 13083 ft | 246 kts | 314° |
| 2026-05-07 01:13 | 47.89884 | -114.40418 | 12687 ft | 246 kts | 314° |
| 2026-05-07 01:14 | 47.91114 | -114.42201 | 12313 ft | 247 kts | 314° |
| 2026-05-07 01:14 | 47.92344 | -114.43982 | 11934 ft | 247 kts | 314° |
| 2026-05-07 01:14 | 47.93575 | -114.45760 | 11563 ft | 246 kts | 314° |
| 2026-05-07 01:14 | 47.94805 | -114.47541 | 11198 ft | 246 kts | 314° |
| 2026-05-07 01:15 | 47.96033 | -114.49320 | 10829 ft | 245 kts | 314° |
| 2026-05-07 01:15 | 47.97259 | -114.51088 | 10470 ft | 245 kts | 314° |
| 2026-05-07 01:15 | 47.98487 | -114.52843 | 10111 ft | 245 kts | 314° |
| 2026-05-07 01:15 | 47.99716 | -114.54603 | 9753 ft | 245 kts | 314° |
| 2026-05-07 01:16 | 48.00951 | -114.56306 | 9426 ft | 236 kts | 320° |
| 2026-05-07 01:16 | 48.02501 | -114.57100 | 9153 ft | 244 kts | 354° |
| 2026-05-07 01:16 | 48.04152 | -114.56397 | 8909 ft | 255 kts | 27° |
| 2026-05-07 01:16 | 48.05561 | -114.54849 | 8742 ft | 255 kts | 33° |
| 2026-05-07 01:17 | 48.06942 | -114.53186 | 8509 ft | 255 kts | 34° |
| 2026-05-07 01:17 | 48.08274 | -114.51394 | 8177 ft | 261 kts | 39° |
| 2026-05-07 01:17 | 48.09598 | -114.49493 | 7832 ft | 265 kts | 39° |
| 2026-05-07 01:17 | 48.10961 | -114.47624 | 7487 ft | 266 kts | 37° |
| 2026-05-07 01:18 | 48.12365 | -114.45808 | 7143 ft | 267 kts | 36° |
| 2026-05-07 01:18 | 48.13794 | -114.44026 | 6799 ft | 268 kts | 35° |
| 2026-05-07 01:18 | 48.15238 | -114.42259 | 6477 ft | 268 kts | 34° |
| 2026-05-07 01:18 | 48.16699 | -114.40505 | 6120 ft | 269 kts | 34° |
| 2026-05-07 01:19 | 48.18188 | -114.38922 | 5790 ft | 254 kts | 28° |
| 2026-05-07 01:19 | 48.19628 | -114.37486 | 5441 ft | 243 kts | 31° |
| 2026-05-07 01:19 | 48.20975 | -114.36023 | 5133 ft | 232 kts | 31° |
| 2026-05-07 01:19 | 48.22235 | -114.34725 | 4825 ft | 215 kts | 30° |
| 2026-05-07 01:20 | 48.23439 | -114.33502 | 4530 ft | 199 kts | 31° |
| 2026-05-07 01:20 | 48.24546 | -114.32328 | 4250 ft | 193 kts | 33° |
| 2026-05-07 01:20 | 48.25632 | -114.31186 | 3996 ft | 188 kts | 32° |
| 2026-05-07 01:20 | 48.26633 | -114.30131 | 3784 ft | 162 kts | 34° |
| 2026-05-07 01:21 | 48.27490 | -114.29243 | 3571 ft | 142 kts | 33° |
| 2026-05-07 01:21 | 48.28267 | -114.28458 | 3404 ft | 129 kts | 32° |
| 2026-05-07 01:21 | 48.29017 | -114.27688 | 3218 ft | 129 kts | 34° |
| 2026-05-07 01:21 | 48.29751 | -114.26910 | 3051 ft | 128 kts | 35° |
| 2026-05-07 01:22 | 48.30443 | -114.26188 | 2978 ft | 109 kts | 34° |
| 2026-05-07 01:22 | 48.30769 | -114.25840 | 2973 ft | 35 kts | 37° |
| 2026-05-07 01:22 | 48.30940 | -114.25659 | 2971 ft | 28 kts | 35° |
| 2026-05-07 01:22 | 48.31086 | -114.25508 | 2974 ft | 23 kts | 34° |
| 2026-05-07 01:23 | 48.31194 | -114.25355 | 2974 ft | 21 kts | 77° |
| 2026-05-07 01:23 | 48.31188 | -114.25206 | 2975 ft | 0 kts | 84° |
| 2026-05-07 01:24 | 48.31195 | -114.25191 | 2975 ft | 4 kts | 34° |
| 2026-05-07 01:24 | 48.31244 | -114.25143 | 2975 ft | 12 kts | 33° |
| 2026-05-07 01:25 | 48.31326 | -114.25062 | 2974 ft | 16 kts | 33° |
| 2026-05-07 01:25 | 48.31336 | -114.24985 | 2974 ft | 9 kts | 134° |
| 2026-05-07 01:25 | 48.31340 | -114.24935 | 2974 ft | 7 kts | 39° |
| 2026-05-07 01:25 | 48.31386 | -114.24886 | 2974 ft | 7 kts | 21° |
| 2026-05-07 01:26 | 48.31394 | -114.24876 | 2974 ft | 1 kts | 70° |
| 2026-05-07 01:26 | 48.31391 | -114.24871 | 2974 ft | 1 kts | 125° |
| 2026-05-07 01:26 | 48.31391 | -114.24870 | 2974 ft | 0 kts | 126° |